sensor_id;sensor_type;location;lat;lon;timestamp;P1;durP1;ratioP1;P2;durP2;ratioP2
64885;SDS011;51514;52.206;5.114;2022-12-29T00:01:27;8.27;;;4.70;;
64885;SDS011;51514;52.206;5.114;2022-12-29T00:03:53;5.97;;;4.30;;
64885;SDS011;51514;52.206;5.114;2022-12-29T00:06:18;6.30;;;3.80;;
64885;SDS011;51514;52.206;5.114;2022-12-29T00:08:43;6.72;;;4.13;;
64885;SDS011;51514;52.206;5.114;2022-12-29T00:11:10;5.40;;;4.10;;
64885;SDS011;51514;52.206;5.114;2022-12-29T00:13:37;5.75;;;4.03;;
64885;SDS011;51514;52.206;5.114;2022-12-29T00:16:21;5.53;;;3.70;;
64885;SDS011;51514;52.206;5.114;2022-12-29T00:18:47;5.72;;;3.50;;
64885;SDS011;51514;52.206;5.114;2022-12-29T00:21:13;6.95;;;3.75;;
64885;SDS011;51514;52.206;5.114;2022-12-29T00:23:58;6.03;;;3.53;;
64885;SDS011;51514;52.206;5.114;2022-12-29T00:26:43;4.72;;;3.10;;
64885;SDS011;51514;52.206;5.114;2022-12-29T00:29:27;6.50;;;3.40;;
64885;SDS011;51514;52.206;5.114;2022-12-29T00:32:11;4.78;;;3.42;;
64885;SDS011;51514;52.206;5.114;2022-12-29T00:34:55;5.20;;;2.92;;
64885;SDS011;51514;52.206;5.114;2022-12-29T00:37:40;6.45;;;2.97;;
64885;SDS011;51514;52.206;5.114;2022-12-29T00:40:27;5.60;;;3.22;;
64885;SDS011;51514;52.206;5.114;2022-12-29T00:43:11;5.18;;;2.92;;
64885;SDS011;51514;52.206;5.114;2022-12-29T00:45:55;4.63;;;2.90;;
64885;SDS011;51514;52.206;5.114;2022-12-29T00:48:20;4.97;;;3.72;;
64885;SDS011;51514;52.206;5.114;2022-12-29T00:51:04;5.30;;;2.95;;
64885;SDS011;51514;52.206;5.114;2022-12-29T00:53:30;4.80;;;3.17;;
64885;SDS011;51514;52.206;5.114;2022-12-29T00:55:55;5.22;;;2.88;;
64885;SDS011;51514;52.206;5.114;2022-12-29T00:58:20;3.55;;;2.70;;
64885;SDS011;51514;52.206;5.114;2022-12-29T01:00:46;5.68;;;3.03;;
64885;SDS011;51514;52.206;5.114;2022-12-29T01:03:11;3.72;;;2.47;;
64885;SDS011;51514;52.206;5.114;2022-12-29T01:05:36;4.15;;;2.55;;
64885;SDS011;51514;52.206;5.114;2022-12-29T01:08:02;5.05;;;2.78;;
64885;SDS011;51514;52.206;5.114;2022-12-29T01:10:27;5.50;;;3.47;;
64885;SDS011;51514;52.206;5.114;2022-12-29T01:12:53;5.05;;;2.67;;
64885;SDS011;51514;52.206;5.114;2022-12-29T01:15:18;7.00;;;3.20;;
64885;SDS011;51514;52.206;5.114;2022-12-29T01:17:44;3.88;;;3.10;;
64885;SDS011;51514;52.206;5.114;2022-12-29T01:20:09;5.07;;;3.22;;
64885;SDS011;51514;52.206;5.114;2022-12-29T01:22:35;5.50;;;3.35;;
64885;SDS011;51514;52.206;5.114;2022-12-29T01:25:01;5.32;;;3.10;;
64885;SDS011;51514;52.206;5.114;2022-12-29T01:27:27;5.60;;;2.88;;
64885;SDS011;51514;52.206;5.114;2022-12-29T01:29:52;4.47;;;2.60;;
64885;SDS011;51514;52.206;5.114;2022-12-29T01:32:18;4.97;;;2.60;;
64885;SDS011;51514;52.206;5.114;2022-12-29T01:34:43;4.85;;;3.17;;
64885;SDS011;51514;52.206;5.114;2022-12-29T01:37:08;8.70;;;3.00;;
64885;SDS011;51514;52.206;5.114;2022-12-29T01:39:34;7.70;;;3.10;;
64885;SDS011;51514;52.206;5.114;2022-12-29T01:41:59;4.15;;;3.35;;
64885;SDS011;51514;52.206;5.114;2022-12-29T01:47:25;6.53;;;3.35;;
64885;SDS011;51514;52.206;5.114;2022-12-29T01:49:56;6.25;;;3.00;;
64885;SDS011;51514;52.206;5.114;2022-12-29T01:52:24;5.40;;;3.15;;
64885;SDS011;51514;52.206;5.114;2022-12-29T01:54:54;8.07;;;3.17;;
64885;SDS011;51514;52.206;5.114;2022-12-29T01:57:25;3.65;;;2.85;;
64885;SDS011;51514;52.206;5.114;2022-12-29T02:00:02;5.50;;;2.90;;
64885;SDS011;51514;52.206;5.114;2022-12-29T02:02:33;5.28;;;2.92;;
64885;SDS011;51514;52.206;5.114;2022-12-29T02:04:59;3.50;;;2.70;;
64885;SDS011;51514;52.206;5.114;2022-12-29T02:07:32;7.90;;;3.05;;
64885;SDS011;51514;52.206;5.114;2022-12-29T02:09:57;7.20;;;3.03;;
64885;SDS011;51514;52.206;5.114;2022-12-29T02:12:25;4.82;;;2.72;;
64885;SDS011;51514;52.206;5.114;2022-12-29T02:14:51;3.10;;;2.53;;
64885;SDS011;51514;52.206;5.114;2022-12-29T02:17:32;7.45;;;3.15;;
64885;SDS011;51514;52.206;5.114;2022-12-29T02:27:01;5.10;;;2.70;;
64885;SDS011;51514;52.206;5.114;2022-12-29T02:34:51;6.82;;;2.38;;
64885;SDS011;51514;52.206;5.114;2022-12-29T02:37:28;5.82;;;2.60;;
64885;SDS011;51514;52.206;5.114;2022-12-29T02:40:06;5.53;;;2.50;;
64885;SDS011;51514;52.206;5.114;2022-12-29T02:42:58;7.97;;;2.42;;
64885;SDS011;51514;52.206;5.114;2022-12-29T02:51:04;13.10;;;2.70;;
64885;SDS011;51514;52.206;5.114;2022-12-29T02:53:39;4.82;;;2.15;;
64885;SDS011;51514;52.206;5.114;2022-12-29T02:56:25;5.13;;;2.28;;
64885;SDS011;51514;52.206;5.114;2022-12-29T02:58:50;5.65;;;2.00;;
64885;SDS011;51514;52.206;5.114;2022-12-29T03:04:56;9.45;;;3.05;;
64885;SDS011;51514;52.206;5.114;2022-12-29T03:07:24;6.60;;;1.75;;
64885;SDS011;51514;52.206;5.114;2022-12-29T03:10:20;13.38;;;2.55;;
64885;SDS011;51514;52.206;5.114;2022-12-29T03:15:42;3.15;;;1.67;;
64885;SDS011;51514;52.206;5.114;2022-12-29T03:21:34;7.65;;;2.13;;
64885;SDS011;51514;52.206;5.114;2022-12-29T03:24:29;6.43;;;3.42;;
64885;SDS011;51514;52.206;5.114;2022-12-29T03:27:05;11.88;;;2.63;;
64885;SDS011;51514;52.206;5.114;2022-12-29T03:29:36;9.80;;;2.50;;
64885;SDS011;51514;52.206;5.114;2022-12-29T03:32:07;9.60;;;2.28;;
64885;SDS011;51514;52.206;5.114;2022-12-29T03:34:34;9.23;;;2.30;;
64885;SDS011;51514;52.206;5.114;2022-12-29T03:37:08;10.20;;;2.33;;
64885;SDS011;51514;52.206;5.114;2022-12-29T03:39:37;6.43;;;2.50;;
64885;SDS011;51514;52.206;5.114;2022-12-29T03:42:04;8.90;;;3.08;;
64885;SDS011;51514;52.206;5.114;2022-12-29T03:44:35;10.20;;;2.20;;
64885;SDS011;51514;52.206;5.114;2022-12-29T03:47:02;6.97;;;2.15;;
64885;SDS011;51514;52.206;5.114;2022-12-29T03:49:27;14.88;;;4.07;;
64885;SDS011;51514;52.206;5.114;2022-12-29T03:51:53;8.57;;;2.50;;
64885;SDS011;51514;52.206;5.114;2022-12-29T03:54:18;9.02;;;2.10;;
64885;SDS011;51514;52.206;5.114;2022-12-29T03:56:44;14.65;;;2.50;;
64885;SDS011;51514;52.206;5.114;2022-12-29T03:59:09;6.03;;;2.10;;
64885;SDS011;51514;52.206;5.114;2022-12-29T04:01:34;4.20;;;1.55;;
64885;SDS011;51514;52.206;5.114;2022-12-29T04:03:59;7.28;;;2.17;;
64885;SDS011;51514;52.206;5.114;2022-12-29T04:06:25;4.75;;;1.90;;
64885;SDS011;51514;52.206;5.114;2022-12-29T04:08:50;4.68;;;1.55;;
64885;SDS011;51514;52.206;5.114;2022-12-29T04:11:15;5.50;;;2.17;;
64885;SDS011;51514;52.206;5.114;2022-12-29T04:13:41;5.32;;;2.08;;
64885;SDS011;51514;52.206;5.114;2022-12-29T04:16:06;6.90;;;2.67;;
64885;SDS011;51514;52.206;5.114;2022-12-29T04:18:32;6.43;;;2.53;;
64885;SDS011;51514;52.206;5.114;2022-12-29T04:20:57;6.25;;;2.13;;
64885;SDS011;51514;52.206;5.114;2022-12-29T04:23:27;4.43;;;1.85;;
64885;SDS011;51514;52.206;5.114;2022-12-29T04:25:53;7.45;;;2.60;;
64885;SDS011;51514;52.206;5.114;2022-12-29T04:28:19;5.78;;;2.25;;
64885;SDS011;51514;52.206;5.114;2022-12-29T04:30:44;6.72;;;2.03;;
64885;SDS011;51514;52.206;5.114;2022-12-29T04:33:10;5.63;;;2.03;;
64885;SDS011;51514;52.206;5.114;2022-12-29T04:35:35;5.15;;;2.08;;
64885;SDS011;51514;52.206;5.114;2022-12-29T04:38:01;7.80;;;2.67;;
64885;SDS011;51514;52.206;5.114;2022-12-29T04:40:27;9.20;;;2.42;;
64885;SDS011;51514;52.206;5.114;2022-12-29T04:42:53;7.93;;;2.45;;
64885;SDS011;51514;52.206;5.114;2022-12-29T04:45:18;13.73;;;3.20;;
64885;SDS011;51514;52.206;5.114;2022-12-29T04:47:43;8.57;;;2.40;;
64885;SDS011;51514;52.206;5.114;2022-12-29T04:50:09;9.65;;;2.70;;
64885;SDS011;51514;52.206;5.114;2022-12-29T04:52:34;13.05;;;2.92;;
64885;SDS011;51514;52.206;5.114;2022-12-29T04:55:00;10.45;;;3.22;;
64885;SDS011;51514;52.206;5.114;2022-12-29T04:57:26;13.00;;;2.70;;
64885;SDS011;51514;52.206;5.114;2022-12-29T04:59:52;8.18;;;2.60;;
64885;SDS011;51514;52.206;5.114;2022-12-29T05:02:17;8.52;;;3.05;;
64885;SDS011;51514;52.206;5.114;2022-12-29T05:04:43;7.32;;;2.60;;
64885;SDS011;51514;52.206;5.114;2022-12-29T05:07:08;8.35;;;2.70;;
64885;SDS011;51514;52.206;5.114;2022-12-29T05:09:34;8.65;;;2.65;;
64885;SDS011;51514;52.206;5.114;2022-12-29T05:11:59;13.10;;;3.17;;
64885;SDS011;51514;52.206;5.114;2022-12-29T05:14:25;13.75;;;3.08;;
64885;SDS011;51514;52.206;5.114;2022-12-29T05:16:51;8.55;;;2.83;;
64885;SDS011;51514;52.206;5.114;2022-12-29T05:19:16;11.20;;;2.70;;
64885;SDS011;51514;52.206;5.114;2022-12-29T05:21:42;10.07;;;3.25;;
64885;SDS011;51514;52.206;5.114;2022-12-29T05:24:08;12.38;;;3.22;;
64885;SDS011;51514;52.206;5.114;2022-12-29T05:26:33;8.02;;;3.80;;
64885;SDS011;51514;52.206;5.114;2022-12-29T05:28:58;16.50;;;3.90;;
64885;SDS011;51514;52.206;5.114;2022-12-29T05:31:24;19.40;;;3.50;;
64885;SDS011;51514;52.206;5.114;2022-12-29T05:33:50;16.45;;;3.22;;
64885;SDS011;51514;52.206;5.114;2022-12-29T05:36:15;11.65;;;3.00;;
64885;SDS011;51514;52.206;5.114;2022-12-29T05:38:41;16.38;;;3.08;;
64885;SDS011;51514;52.206;5.114;2022-12-29T05:41:06;9.88;;;2.63;;
64885;SDS011;51514;52.206;5.114;2022-12-29T05:43:31;13.35;;;3.47;;
64885;SDS011;51514;52.206;5.114;2022-12-29T05:45:57;13.98;;;4.07;;
64885;SDS011;51514;52.206;5.114;2022-12-29T05:48:22;16.42;;;3.97;;
64885;SDS011;51514;52.206;5.114;2022-12-29T05:50:48;10.80;;;3.15;;
64885;SDS011;51514;52.206;5.114;2022-12-29T05:53:15;17.20;;;4.20;;
64885;SDS011;51514;52.206;5.114;2022-12-29T05:55:40;8.02;;;2.72;;
64885;SDS011;51514;52.206;5.114;2022-12-29T05:58:06;15.52;;;3.35;;
64885;SDS011;51514;52.206;5.114;2022-12-29T06:00:31;16.42;;;3.58;;
64885;SDS011;51514;52.206;5.114;2022-12-29T06:02:57;15.10;;;4.50;;
64885;SDS011;51514;52.206;5.114;2022-12-29T06:05:22;18.55;;;3.70;;
64885;SDS011;51514;52.206;5.114;2022-12-29T06:07:47;11.60;;;3.20;;
64885;SDS011;51514;52.206;5.114;2022-12-29T06:10:13;10.13;;;2.83;;
64885;SDS011;51514;52.206;5.114;2022-12-29T06:12:38;12.77;;;3.05;;
64885;SDS011;51514;52.206;5.114;2022-12-29T06:15:04;13.68;;;3.13;;
64885;SDS011;51514;52.206;5.114;2022-12-29T06:17:29;17.23;;;4.15;;
64885;SDS011;51514;52.206;5.114;2022-12-29T06:19:55;13.93;;;4.15;;
64885;SDS011;51514;52.206;5.114;2022-12-29T06:22:20;15.27;;;4.00;;
64885;SDS011;51514;52.206;5.114;2022-12-29T06:24:46;13.63;;;2.88;;
64885;SDS011;51514;52.206;5.114;2022-12-29T06:27:11;12.73;;;3.15;;
64885;SDS011;51514;52.206;5.114;2022-12-29T06:29:36;14.80;;;3.58;;
64885;SDS011;51514;52.206;5.114;2022-12-29T06:32:02;15.50;;;3.35;;
64885;SDS011;51514;52.206;5.114;2022-12-29T06:34:28;14.00;;;3.45;;
64885;SDS011;51514;52.206;5.114;2022-12-29T06:36:54;13.77;;;3.50;;
64885;SDS011;51514;52.206;5.114;2022-12-29T06:39:19;15.45;;;3.30;;
64885;SDS011;51514;52.206;5.114;2022-12-29T06:41:44;16.70;;;4.03;;
64885;SDS011;51514;52.206;5.114;2022-12-29T06:44:10;13.40;;;3.78;;
64885;SDS011;51514;52.206;5.114;2022-12-29T06:46:35;14.63;;;2.95;;
64885;SDS011;51514;52.206;5.114;2022-12-29T06:49:00;18.23;;;3.65;;
64885;SDS011;51514;52.206;5.114;2022-12-29T06:51:26;12.63;;;3.22;;
64885;SDS011;51514;52.206;5.114;2022-12-29T06:53:51;11.30;;;4.13;;
64885;SDS011;51514;52.206;5.114;2022-12-29T06:56:16;14.85;;;5.18;;
64885;SDS011;51514;52.206;5.114;2022-12-29T06:58:42;18.33;;;3.92;;
64885;SDS011;51514;52.206;5.114;2022-12-29T07:01:07;15.40;;;4.13;;
64885;SDS011;51514;52.206;5.114;2022-12-29T07:03:32;10.77;;;3.00;;
64885;SDS011;51514;52.206;5.114;2022-12-29T07:05:58;15.27;;;3.58;;
64885;SDS011;51514;52.206;5.114;2022-12-29T07:08:24;14.05;;;3.00;;
64885;SDS011;51514;52.206;5.114;2022-12-29T07:10:49;19.83;;;3.90;;
64885;SDS011;51514;52.206;5.114;2022-12-29T07:13:15;15.38;;;3.10;;
64885;SDS011;51514;52.206;5.114;2022-12-29T07:15:40;15.20;;;4.18;;
64885;SDS011;51514;52.206;5.114;2022-12-29T07:18:05;15.75;;;3.42;;
64885;SDS011;51514;52.206;5.114;2022-12-29T07:20:31;9.35;;;3.35;;
64885;SDS011;51514;52.206;5.114;2022-12-29T07:22:56;13.85;;;4.28;;
64885;SDS011;51514;52.206;5.114;2022-12-29T07:25:22;24.55;;;6.15;;
64885;SDS011;51514;52.206;5.114;2022-12-29T07:27:48;15.48;;;3.20;;
64885;SDS011;51514;52.206;5.114;2022-12-29T07:30:13;11.23;;;3.28;;
64885;SDS011;51514;52.206;5.114;2022-12-29T07:32:39;15.80;;;3.50;;
64885;SDS011;51514;52.206;5.114;2022-12-29T07:35:05;9.70;;;3.67;;
64885;SDS011;51514;52.206;5.114;2022-12-29T07:37:30;15.10;;;4.95;;
64885;SDS011;51514;52.206;5.114;2022-12-29T07:39:56;10.35;;;3.42;;
64885;SDS011;51514;52.206;5.114;2022-12-29T07:42:21;11.30;;;3.38;;
64885;SDS011;51514;52.206;5.114;2022-12-29T07:44:46;10.25;;;3.63;;
64885;SDS011;51514;52.206;5.114;2022-12-29T07:47:11;12.05;;;2.60;;
64885;SDS011;51514;52.206;5.114;2022-12-29T07:49:37;14.35;;;3.22;;
64885;SDS011;51514;52.206;5.114;2022-12-29T07:52:02;11.13;;;2.88;;
64885;SDS011;51514;52.206;5.114;2022-12-29T07:54:27;14.23;;;3.97;;
64885;SDS011;51514;52.206;5.114;2022-12-29T07:56:53;14.98;;;3.35;;
64885;SDS011;51514;52.206;5.114;2022-12-29T07:59:18;15.00;;;3.22;;
64885;SDS011;51514;52.206;5.114;2022-12-29T08:01:44;16.25;;;3.85;;
64885;SDS011;51514;52.206;5.114;2022-12-29T08:04:09;11.00;;;4.03;;
64885;SDS011;51514;52.206;5.114;2022-12-29T08:06:35;11.07;;;4.10;;
64885;SDS011;51514;52.206;5.114;2022-12-29T08:09:00;19.17;;;4.60;;
64885;SDS011;51514;52.206;5.114;2022-12-29T08:11:26;19.25;;;3.75;;
64885;SDS011;51514;52.206;5.114;2022-12-29T08:13:52;13.77;;;3.30;;
64885;SDS011;51514;52.206;5.114;2022-12-29T08:16:17;15.88;;;3.10;;
64885;SDS011;51514;52.206;5.114;2022-12-29T08:18:43;14.13;;;3.03;;
64885;SDS011;51514;52.206;5.114;2022-12-29T08:21:09;14.60;;;3.83;;
64885;SDS011;51514;52.206;5.114;2022-12-29T08:23:34;13.65;;;3.25;;
64885;SDS011;51514;52.206;5.114;2022-12-29T08:26:00;14.93;;;3.58;;
64885;SDS011;51514;52.206;5.114;2022-12-29T08:28:27;18.80;;;4.63;;
64885;SDS011;51514;52.206;5.114;2022-12-29T08:30:54;12.90;;;3.60;;
64885;SDS011;51514;52.206;5.114;2022-12-29T08:33:22;13.18;;;3.55;;
64885;SDS011;51514;52.206;5.114;2022-12-29T08:35:48;18.75;;;3.72;;
64885;SDS011;51514;52.206;5.114;2022-12-29T08:38:14;12.25;;;4.30;;
64885;SDS011;51514;52.206;5.114;2022-12-29T08:40:39;23.02;;;4.70;;
64885;SDS011;51514;52.206;5.114;2022-12-29T08:43:04;17.42;;;4.63;;
64885;SDS011;51514;52.206;5.114;2022-12-29T08:45:30;13.00;;;3.17;;
64885;SDS011;51514;52.206;5.114;2022-12-29T08:47:55;13.98;;;3.42;;
64885;SDS011;51514;52.206;5.114;2022-12-29T08:50:21;12.02;;;4.07;;
64885;SDS011;51514;52.206;5.114;2022-12-29T08:52:46;22.17;;;3.38;;
64885;SDS011;51514;52.206;5.114;2022-12-29T08:55:12;14.85;;;3.88;;
64885;SDS011;51514;52.206;5.114;2022-12-29T08:57:37;19.00;;;4.22;;
64885;SDS011;51514;52.206;5.114;2022-12-29T09:00:03;14.48;;;4.50;;
64885;SDS011;51514;52.206;5.114;2022-12-29T09:02:29;16.77;;;4.50;;
64885;SDS011;51514;52.206;5.114;2022-12-29T09:04:54;22.48;;;4.00;;
64885;SDS011;51514;52.206;5.114;2022-12-29T09:07:22;16.90;;;3.55;;
64885;SDS011;51514;52.206;5.114;2022-12-29T09:09:47;19.52;;;4.55;;
64885;SDS011;51514;52.206;5.114;2022-12-29T09:12:13;15.18;;;3.47;;
64885;SDS011;51514;52.206;5.114;2022-12-29T09:14:38;15.82;;;4.50;;
64885;SDS011;51514;52.206;5.114;2022-12-29T09:17:04;12.32;;;3.72;;
64885;SDS011;51514;52.206;5.114;2022-12-29T09:19:48;11.50;;;3.72;;
64885;SDS011;51514;52.206;5.114;2022-12-29T09:22:13;19.80;;;3.88;;
64885;SDS011;51514;52.206;5.114;2022-12-29T09:24:38;13.38;;;3.95;;
64885;SDS011;51514;52.206;5.114;2022-12-29T09:27:04;16.55;;;3.97;;
64885;SDS011;51514;52.206;5.114;2022-12-29T09:29:29;15.00;;;3.88;;
64885;SDS011;51514;52.206;5.114;2022-12-29T09:31:54;13.65;;;4.35;;
64885;SDS011;51514;52.206;5.114;2022-12-29T09:34:20;17.92;;;4.22;;
64885;SDS011;51514;52.206;5.114;2022-12-29T09:36:45;15.68;;;4.75;;
64885;SDS011;51514;52.206;5.114;2022-12-29T09:39:11;16.08;;;4.57;;
64885;SDS011;51514;52.206;5.114;2022-12-29T09:44:42;12.38;;;4.50;;
64885;SDS011;51514;52.206;5.114;2022-12-29T09:47:18;14.60;;;3.67;;
64885;SDS011;51514;52.206;5.114;2022-12-29T09:49:47;18.17;;;3.65;;
64885;SDS011;51514;52.206;5.114;2022-12-29T09:52:28;15.30;;;5.25;;
64885;SDS011;51514;52.206;5.114;2022-12-29T09:55:01;18.85;;;3.85;;
64885;SDS011;51514;52.206;5.114;2022-12-29T10:00:03;20.80;;;4.25;;
64885;SDS011;51514;52.206;5.114;2022-12-29T10:05:57;21.45;;;4.22;;
64885;SDS011;51514;52.206;5.114;2022-12-29T10:08:37;25.20;;;5.80;;
64885;SDS011;51514;52.206;5.114;2022-12-29T10:25:13;17.33;;;4.18;;
64885;SDS011;51514;52.206;5.114;2022-12-29T10:27:42;16.50;;;4.10;;
64885;SDS011;51514;52.206;5.114;2022-12-29T10:30:11;17.38;;;3.78;;
64885;SDS011;51514;52.206;5.114;2022-12-29T10:32:38;20.75;;;4.63;;
64885;SDS011;51514;52.206;5.114;2022-12-29T10:35:15;15.23;;;3.97;;
64885;SDS011;51514;52.206;5.114;2022-12-29T10:40:43;21.25;;;4.55;;
64885;SDS011;51514;52.206;5.114;2022-12-29T10:43:30;15.05;;;4.95;;
64885;SDS011;51514;52.206;5.114;2022-12-29T10:46:02;14.10;;;4.18;;
64885;SDS011;51514;52.206;5.114;2022-12-29T10:48:32;14.73;;;4.53;;
64885;SDS011;51514;52.206;5.114;2022-12-29T10:50:59;20.33;;;5.03;;
64885;SDS011;51514;52.206;5.114;2022-12-29T10:53:42;16.67;;;4.68;;
64885;SDS011;51514;52.206;5.114;2022-12-29T10:56:16;22.75;;;4.97;;
64885;SDS011;51514;52.206;5.114;2022-12-29T10:58:43;16.17;;;4.43;;
64885;SDS011;51514;52.206;5.114;2022-12-29T11:01:13;14.50;;;4.18;;
64885;SDS011;51514;52.206;5.114;2022-12-29T11:06:43;21.88;;;4.97;;
64885;SDS011;51514;52.206;5.114;2022-12-29T11:09:16;17.52;;;5.75;;
64885;SDS011;51514;52.206;5.114;2022-12-29T11:11:49;26.15;;;5.55;;
64885;SDS011;51514;52.206;5.114;2022-12-29T11:14:18;23.98;;;4.95;;
64885;SDS011;51514;52.206;5.114;2022-12-29T11:16:45;22.30;;;4.70;;
64885;SDS011;51514;52.206;5.114;2022-12-29T11:19:29;17.30;;;4.38;;
64885;SDS011;51514;52.206;5.114;2022-12-29T11:22:20;24.27;;;5.28;;
64885;SDS011;51514;52.206;5.114;2022-12-29T11:24:45;25.25;;;5.20;;
64885;SDS011;51514;52.206;5.114;2022-12-29T11:27:17;23.20;;;4.75;;
64885;SDS011;51514;52.206;5.114;2022-12-29T11:29:47;24.33;;;4.40;;
64885;SDS011;51514;52.206;5.114;2022-12-29T11:34:44;27.02;;;5.63;;
64885;SDS011;51514;52.206;5.114;2022-12-29T11:39:40;27.48;;;6.50;;
64885;SDS011;51514;52.206;5.114;2022-12-29T11:42:12;21.67;;;5.97;;
64885;SDS011;51514;52.206;5.114;2022-12-29T11:44:44;25.63;;;5.55;;
64885;SDS011;51514;52.206;5.114;2022-12-29T11:50:04;24.52;;;5.53;;
64885;SDS011;51514;52.206;5.114;2022-12-29T11:52:33;23.48;;;5.32;;
64885;SDS011;51514;52.206;5.114;2022-12-29T11:55:04;20.15;;;5.35;;
64885;SDS011;51514;52.206;5.114;2022-12-29T11:57:32;23.73;;;5.50;;
64885;SDS011;51514;52.206;5.114;2022-12-29T12:00:00;20.13;;;5.30;;
64885;SDS011;51514;52.206;5.114;2022-12-29T12:02:35;14.95;;;4.55;;
64885;SDS011;51514;52.206;5.114;2022-12-29T12:05:11;20.77;;;5.05;;
64885;SDS011;51514;52.206;5.114;2022-12-29T12:08:19;23.45;;;4.63;;
64885;SDS011;51514;52.206;5.114;2022-12-29T12:10:43;20.30;;;4.25;;
64885;SDS011;51514;52.206;5.114;2022-12-29T12:13:27;23.45;;;5.43;;
64885;SDS011;51514;52.206;5.114;2022-12-29T12:16:21;26.00;;;6.20;;
64885;SDS011;51514;52.206;5.114;2022-12-29T12:21:38;22.63;;;4.70;;
64885;SDS011;51514;52.206;5.114;2022-12-29T12:27:08;19.00;;;5.57;;
64885;SDS011;51514;52.206;5.114;2022-12-29T12:35:15;17.50;;;4.35;;
64885;SDS011;51514;52.206;5.114;2022-12-29T12:40:48;11.82;;;3.60;;
64885;SDS011;51514;52.206;5.114;2022-12-29T12:43:35;16.97;;;4.17;;
64885;SDS011;51514;52.206;5.114;2022-12-29T12:46:18;15.57;;;4.07;;
64885;SDS011;51514;52.206;5.114;2022-12-29T12:57:40;18.55;;;4.55;;
64885;SDS011;51514;52.206;5.114;2022-12-29T13:00:22;18.83;;;4.72;;
64885;SDS011;51514;52.206;5.114;2022-12-29T13:05:34;16.75;;;4.40;;
64885;SDS011;51514;52.206;5.114;2022-12-29T13:11:28;20.48;;;4.50;;
64885;SDS011;51514;52.206;5.114;2022-12-29T13:36:19;17.75;;;4.22;;
64885;SDS011;51514;52.206;5.114;2022-12-29T13:38:51;12.25;;;3.60;;
64885;SDS011;51514;52.206;5.114;2022-12-29T13:41:31;13.30;;;4.40;;
64885;SDS011;51514;52.206;5.114;2022-12-29T13:44:00;17.60;;;4.30;;
64885;SDS011;51514;52.206;5.114;2022-12-29T13:46:29;17.05;;;4.53;;
64885;SDS011;51514;52.206;5.114;2022-12-29T13:49:01;16.55;;;3.92;;
64885;SDS011;51514;52.206;5.114;2022-12-29T13:51:35;14.38;;;3.75;;
64885;SDS011;51514;52.206;5.114;2022-12-29T13:54:11;11.18;;;3.33;;
64885;SDS011;51514;52.206;5.114;2022-12-29T13:56:52;15.57;;;3.65;;
64885;SDS011;51514;52.206;5.114;2022-12-29T14:07:30;14.80;;;4.45;;
64885;SDS011;51514;52.206;5.114;2022-12-29T14:10:02;16.58;;;4.28;;
64885;SDS011;51514;52.206;5.114;2022-12-29T14:12:30;19.70;;;5.38;;
64885;SDS011;51514;52.206;5.114;2022-12-29T14:15:13;19.25;;;4.78;;
64885;SDS011;51514;52.206;5.114;2022-12-29T14:17:44;9.13;;;4.20;;
64885;SDS011;51514;52.206;5.114;2022-12-29T14:20:24;12.82;;;3.38;;
64885;SDS011;51514;52.206;5.114;2022-12-29T14:23:00;9.63;;;4.05;;
64885;SDS011;51514;52.206;5.114;2022-12-29T14:28:23;10.45;;;3.30;;
64885;SDS011;51514;52.206;5.114;2022-12-29T14:30:56;7.88;;;2.88;;
64885;SDS011;51514;52.206;5.114;2022-12-29T14:33:24;8.57;;;3.15;;
64885;SDS011;51514;52.206;5.114;2022-12-29T14:35:52;10.52;;;3.00;;
64885;SDS011;51514;52.206;5.114;2022-12-29T14:38:19;11.80;;;3.13;;
64885;SDS011;51514;52.206;5.114;2022-12-29T14:40:47;8.93;;;2.40;;
64885;SDS011;51514;52.206;5.114;2022-12-29T14:43:18;6.75;;;2.28;;
64885;SDS011;51514;52.206;5.114;2022-12-29T14:45:56;9.50;;;3.80;;
64885;SDS011;51514;52.206;5.114;2022-12-29T14:48:29;8.07;;;3.35;;
64885;SDS011;51514;52.206;5.114;2022-12-29T14:50:58;6.25;;;2.63;;
64885;SDS011;51514;52.206;5.114;2022-12-29T14:56:10;6.85;;;2.58;;
64885;SDS011;51514;52.206;5.114;2022-12-29T14:58:41;12.77;;;4.22;;
64885;SDS011;51514;52.206;5.114;2022-12-29T15:01:18;8.20;;;3.15;;
64885;SDS011;51514;52.206;5.114;2022-12-29T15:03:50;9.80;;;3.28;;
64885;SDS011;51514;52.206;5.114;2022-12-29T15:06:18;12.52;;;5.25;;
64885;SDS011;51514;52.206;5.114;2022-12-29T15:09:08;12.10;;;3.47;;
64885;SDS011;51514;52.206;5.114;2022-12-29T15:11:48;10.75;;;3.70;;
64885;SDS011;51514;52.206;5.114;2022-12-29T15:14:38;13.70;;;4.95;;
64885;SDS011;51514;52.206;5.114;2022-12-29T15:17:22;21.05;;;7.55;;
64885;SDS011;51514;52.206;5.114;2022-12-29T15:19:50;11.25;;;3.83;;
64885;SDS011;51514;52.206;5.114;2022-12-29T15:22:15;12.75;;;6.07;;
64885;SDS011;51514;52.206;5.114;2022-12-29T15:24:41;14.60;;;4.30;;
64885;SDS011;51514;52.206;5.114;2022-12-29T15:27:10;11.88;;;3.28;;
64885;SDS011;51514;52.206;5.114;2022-12-29T15:29:45;15.23;;;4.03;;
64885;SDS011;51514;52.206;5.114;2022-12-29T15:34:48;13.52;;;4.25;;
64885;SDS011;51514;52.206;5.114;2022-12-29T15:37:19;13.80;;;4.25;;
64885;SDS011;51514;52.206;5.114;2022-12-29T15:39:49;14.68;;;3.67;;
64885;SDS011;51514;52.206;5.114;2022-12-29T15:43:02;12.50;;;4.47;;
64885;SDS011;51514;52.206;5.114;2022-12-29T15:45:20;15.40;;;3.90;;
64885;SDS011;51514;52.206;5.114;2022-12-29T15:47:56;14.43;;;5.63;;
64885;SDS011;51514;52.206;5.114;2022-12-29T15:52:53;11.98;;;4.22;;
64885;SDS011;51514;52.206;5.114;2022-12-29T15:55:21;15.18;;;5.18;;
64885;SDS011;51514;52.206;5.114;2022-12-29T15:57:46;17.80;;;4.75;;
64885;SDS011;51514;52.206;5.114;2022-12-29T16:00:21;12.68;;;4.40;;
64885;SDS011;51514;52.206;5.114;2022-12-29T16:02:54;12.38;;;3.65;;
64885;SDS011;51514;52.206;5.114;2022-12-29T16:05:22;20.48;;;4.18;;
64885;SDS011;51514;52.206;5.114;2022-12-29T16:07:51;13.75;;;4.93;;
64885;SDS011;51514;52.206;5.114;2022-12-29T16:10:36;10.00;;;3.35;;
64885;SDS011;51514;52.206;5.114;2022-12-29T16:16:24;14.30;;;3.50;;
64885;SDS011;51514;52.206;5.114;2022-12-29T16:18:50;14.52;;;3.95;;
64885;SDS011;51514;52.206;5.114;2022-12-29T16:21:25;14.05;;;3.97;;
64885;SDS011;51514;52.206;5.114;2022-12-29T16:23:53;14.02;;;5.10;;
64885;SDS011;51514;52.206;5.114;2022-12-29T16:28:50;12.43;;;3.63;;
64885;SDS011;51514;52.206;5.114;2022-12-29T16:31:36;14.43;;;3.70;;
64885;SDS011;51514;52.206;5.114;2022-12-29T16:34:25;14.50;;;4.18;;
64885;SDS011;51514;52.206;5.114;2022-12-29T16:37:03;10.77;;;3.75;;
64885;SDS011;51514;52.206;5.114;2022-12-29T16:39:36;22.55;;;6.47;;
64885;SDS011;51514;52.206;5.114;2022-12-29T16:50:28;9.48;;;2.90;;
64885;SDS011;51514;52.206;5.114;2022-12-29T16:52:54;15.13;;;4.50;;
64885;SDS011;51514;52.206;5.114;2022-12-29T16:55:19;8.90;;;3.85;;
64885;SDS011;51514;52.206;5.114;2022-12-29T16:57:45;10.63;;;3.55;;
64885;SDS011;51514;52.206;5.114;2022-12-29T17:00:23;14.32;;;3.60;;
64885;SDS011;51514;52.206;5.114;2022-12-29T17:02:51;9.38;;;3.20;;
64885;SDS011;51514;52.206;5.114;2022-12-29T17:05:21;13.73;;;3.70;;
64885;SDS011;51514;52.206;5.114;2022-12-29T17:07:46;12.50;;;7.20;;
64885;SDS011;51514;52.206;5.114;2022-12-29T17:10:12;10.93;;;3.10;;
64885;SDS011;51514;52.206;5.114;2022-12-29T17:12:39;17.42;;;4.07;;
64885;SDS011;51514;52.206;5.114;2022-12-29T17:15:09;11.85;;;4.75;;
64885;SDS011;51514;52.206;5.114;2022-12-29T17:17:43;13.63;;;3.40;;
64885;SDS011;51514;52.206;5.114;2022-12-29T17:22:47;12.82;;;5.40;;
64885;SDS011;51514;52.206;5.114;2022-12-29T17:25:15;14.70;;;6.18;;
64885;SDS011;51514;52.206;5.114;2022-12-29T17:27:44;12.18;;;3.78;;